sensor_id;sensor_type;location;lat;lon;timestamp;pressure;altitude;pressure_sealevel;temperature;humidity
71907;BME280;59781;52.090;5.030;2023-05-29T00:00:21;102413.84;;;11.45;100.00
71907;BME280;59781;52.090;5.030;2023-05-29T00:02:49;102415.88;;;11.62;100.00
71907;BME280;59781;52.090;5.030;2023-05-29T00:05:16;102421.69;;;11.67;100.00
71907;BME280;59781;52.090;5.030;2023-05-29T00:07:42;102409.56;;;11.42;100.00
71907;BME280;59781;52.090;5.030;2023-05-29T00:10:10;102418.34;;;11.35;100.00
71907;BME280;59781;52.090;5.030;2023-05-29T00:12:37;102411.19;;;11.14;100.00
71907;BME280;59781;52.090;5.030;2023-05-29T00:15:04;102413.22;;;11.22;100.00
71907;BME280;59781;52.090;5.030;2023-05-29T00:17:31;102420.78;;;11.47;100.00
71907;BME280;59781;52.090;5.030;2023-05-29T00:19:58;102408.16;;;11.48;100.00
71907;BME280;59781;52.090;5.030;2023-05-29T00:22:24;102405.41;;;11.29;100.00
71907;BME280;59781;52.090;5.030;2023-05-29T00:24:53;102411.84;;;11.47;100.00
71907;BME280;59781;52.090;5.030;2023-05-29T00:27:19;102404.72;;;11.36;100.00
71907;BME280;59781;52.090;5.030;2023-05-29T00:29:45;102407.81;;;11.22;100.00
71907;BME280;59781;52.090;5.030;2023-05-29T00:32:11;102422.50;;;11.08;100.00
71907;BME280;59781;52.090;5.030;2023-05-29T00:34:37;102412.72;;;11.07;100.00
71907;BME280;59781;52.090;5.030;2023-05-29T00:37:03;102425.63;;;11.04;100.00
71907;BME280;59781;52.090;5.030;2023-05-29T00:39:28;102430.31;;;11.02;100.00
71907;BME280;59781;52.090;5.030;2023-05-29T00:41:54;102435.13;;;11.08;100.00
71907;BME280;59781;52.090;5.030;2023-05-29T00:44:21;102442.03;;;11.22;100.00
71907;BME280;59781;52.090;5.030;2023-05-29T00:46:49;102445.63;;;11.01;100.00
71907;BME280;59781;52.090;5.030;2023-05-29T00:49:19;102451.78;;;10.82;100.00
71907;BME280;59781;52.090;5.030;2023-05-29T00:51:48;102444.22;;;11.07;100.00
71907;BME280;59781;52.090;5.030;2023-05-29T00:54:21;102439.97;;;11.04;100.00
71907;BME280;59781;52.090;5.030;2023-05-29T00:56:52;102447.56;;;10.99;100.00
71907;BME280;59781;52.090;5.030;2023-05-29T00:59:19;102445.97;;;11.17;100.00
71907;BME280;59781;52.090;5.030;2023-05-29T01:01:48;102453.16;;;10.77;100.00
71907;BME280;59781;52.090;5.030;2023-05-29T01:04:16;102444.97;;;10.88;100.00
71907;BME280;59781;52.090;5.030;2023-05-29T01:06:43;102452.72;;;10.81;100.00
71907;BME280;59781;52.090;5.030;2023-05-29T01:09:10;102449.25;;;10.70;100.00
71907;BME280;59781;52.090;5.030;2023-05-29T01:12:02;102447.94;;;10.85;100.00
71907;BME280;59781;52.090;5.030;2023-05-29T01:18:23;102456.78;;;10.66;100.00
71907;BME280;59781;52.090;5.030;2023-05-29T01:21:06;102455.38;;;10.51;100.00
71907;BME280;59781;52.090;5.030;2023-05-29T01:29:28;102472.94;;;10.66;100.00
71907;BME280;59781;52.090;5.030;2023-05-29T01:31:59;102473.13;;;10.74;100.00
71907;BME280;59781;52.090;5.030;2023-05-29T01:34:27;102476.53;;;10.76;100.00
71907;BME280;59781;52.090;5.030;2023-05-29T01:36:53;102477.91;;;10.71;100.00
71907;BME280;59781;52.090;5.030;2023-05-29T01:39:20;102475.22;;;10.71;100.00
71907;BME280;59781;52.090;5.030;2023-05-29T01:41:47;102473.22;;;10.63;100.00
71907;BME280;59781;52.090;5.030;2023-05-29T01:44:15;102488.31;;;10.54;100.00
71907;BME280;59781;52.090;5.030;2023-05-29T01:46:44;102484.75;;;10.33;100.00
71907;BME280;59781;52.090;5.030;2023-05-29T01:49:12;102484.03;;;10.73;100.00
71907;BME280;59781;52.090;5.030;2023-05-29T01:51:42;102492.22;;;10.50;100.00
71907;BME280;59781;52.090;5.030;2023-05-29T01:54:08;102490.47;;;10.60;100.00
71907;BME280;59781;52.090;5.030;2023-05-29T01:56:36;102489.72;;;10.38;100.00
71907;BME280;59781;52.090;5.030;2023-05-29T01:59:03;102492.63;;;10.46;100.00
71907;BME280;59781;52.090;5.030;2023-05-29T02:01:31;102494.97;;;10.39;100.00
71907;BME280;59781;52.090;5.030;2023-05-29T02:03:57;102497.16;;;10.24;100.00
71907;BME280;59781;52.090;5.030;2023-05-29T02:06:22;102498.03;;;10.02;100.00
71907;BME280;59781;52.090;5.030;2023-05-29T02:08:48;102504.84;;;10.18;100.00
71907;BME280;59781;52.090;5.030;2023-05-29T02:11:14;102507.44;;;10.08;100.00
71907;BME280;59781;52.090;5.030;2023-05-29T02:13:40;102501.34;;;10.38;100.00
71907;BME280;59781;52.090;5.030;2023-05-29T02:16:07;102498.66;;;10.38;100.00
71907;BME280;59781;52.090;5.030;2023-05-29T02:18:33;102492.09;;;10.20;100.00
71907;BME280;59781;52.090;5.030;2023-05-29T02:21:00;102491.97;;;10.21;100.00
71907;BME280;59781;52.090;5.030;2023-05-29T02:23:27;102483.84;;;10.44;100.00
71907;BME280;59781;52.090;5.030;2023-05-29T02:25:53;102481.78;;;10.36;100.00
71907;BME280;59781;52.090;5.030;2023-05-29T02:28:20;102492.81;;;10.33;100.00
71907;BME280;59781;52.090;5.030;2023-05-29T02:30:45;102491.84;;;10.34;100.00
71907;BME280;59781;52.090;5.030;2023-05-29T02:33:11;102492.38;;;10.17;100.00
71907;BME280;59781;52.090;5.030;2023-05-29T02:35:37;102493.53;;;9.92;100.00
71907;BME280;59781;52.090;5.030;2023-05-29T02:38:03;102496.41;;;10.11;100.00
71907;BME280;59781;52.090;5.030;2023-05-29T02:40:29;102493.06;;;10.30;100.00
71907;BME280;59781;52.090;5.030;2023-05-29T02:42:57;102491.78;;;10.02;100.00
71907;BME280;59781;52.090;5.030;2023-05-29T02:45:23;102495.22;;;9.93;100.00
71907;BME280;59781;52.090;5.030;2023-05-29T02:47:48;102492.06;;;10.31;100.00
71907;BME280;59781;52.090;5.030;2023-05-29T02:50:14;102499.09;;;10.22;100.00
71907;BME280;59781;52.090;5.030;2023-05-29T02:52:40;102497.25;;;10.12;100.00
71907;BME280;59781;52.090;5.030;2023-05-29T02:55:06;102500.06;;;10.32;100.00
71907;BME280;59781;52.090;5.030;2023-05-29T02:57:32;102497.38;;;10.53;100.00
71907;BME280;59781;52.090;5.030;2023-05-29T02:59:58;102496.75;;;10.18;100.00
71907;BME280;59781;52.090;5.030;2023-05-29T03:02:24;102494.53;;;10.34;100.00
71907;BME280;59781;52.090;5.030;2023-05-29T03:04:52;102495.72;;;9.98;100.00
71907;BME280;59781;52.090;5.030;2023-05-29T03:07:19;102502.34;;;9.94;100.00
71907;BME280;59781;52.090;5.030;2023-05-29T03:09:45;102494.78;;;9.88;100.00
71907;BME280;59781;52.090;5.030;2023-05-29T03:12:10;102502.94;;;9.97;100.00
71907;BME280;59781;52.090;5.030;2023-05-29T03:14:37;102514.25;;;10.12;100.00
71907;BME280;59781;52.090;5.030;2023-05-29T03:17:07;102504.06;;;9.95;100.00
71907;BME280;59781;52.090;5.030;2023-05-29T03:19:33;102499.06;;;9.79;100.00
71907;BME280;59781;52.090;5.030;2023-05-29T03:21:59;102486.06;;;9.95;100.00
71907;BME280;59781;52.090;5.030;2023-05-29T03:24:25;102493.91;;;9.87;100.00
71907;BME280;59781;52.090;5.030;2023-05-29T03:26:51;102491.69;;;9.92;100.00
71907;BME280;59781;52.090;5.030;2023-05-29T03:29:17;102491.47;;;9.95;100.00
71907;BME280;59781;52.090;5.030;2023-05-29T03:31:43;102478.63;;;9.88;100.00
71907;BME280;59781;52.090;5.030;2023-05-29T03:34:11;102490.75;;;9.93;100.00
71907;BME280;59781;52.090;5.030;2023-05-29T03:36:42;102492.56;;;9.82;100.00
71907;BME280;59781;52.090;5.030;2023-05-29T03:39:08;102499.06;;;9.79;100.00
71907;BME280;59781;52.090;5.030;2023-05-29T03:41:34;102498.72;;;10.16;100.00
71907;BME280;59781;52.090;5.030;2023-05-29T03:44:01;102497.84;;;9.72;100.00
71907;BME280;59781;52.090;5.030;2023-05-29T03:46:27;102502.69;;;10.00;100.00
71907;BME280;59781;52.090;5.030;2023-05-29T03:48:53;102505.16;;;9.92;100.00
71907;BME280;59781;52.090;5.030;2023-05-29T03:51:20;102516.94;;;9.69;100.00
71907;BME280;59781;52.090;5.030;2023-05-29T03:53:47;102499.31;;;9.87;100.00
71907;BME280;59781;52.090;5.030;2023-05-29T03:56:13;102502.34;;;9.94;100.00
71907;BME280;59781;52.090;5.030;2023-05-29T03:58:40;102502.44;;;9.92;100.00
71907;BME280;59781;52.090;5.030;2023-05-29T04:01:07;102506.09;;;10.02;100.00
71907;BME280;59781;52.090;5.030;2023-05-29T04:03:33;102513.34;;;9.91;100.00
71907;BME280;59781;52.090;5.030;2023-05-29T04:06:00;102499.59;;;10.16;100.00
71907;BME280;59781;52.090;5.030;2023-05-29T04:08:26;102511.38;;;10.04;100.00
71907;BME280;59781;52.090;5.030;2023-05-29T04:10:52;102513.97;;;9.94;100.00
71907;BME280;59781;52.090;5.030;2023-05-29T04:13:20;102510.41;;;10.05;100.00
71907;BME280;59781;52.090;5.030;2023-05-29T04:15:46;102518.56;;;10.15;100.00
71907;BME280;59781;52.090;5.030;2023-05-29T04:18:13;102521.44;;;9.91;100.00
71907;BME280;59781;52.090;5.030;2023-05-29T04:20:40;102524.28;;;10.32;100.00
71907;BME280;59781;52.090;5.030;2023-05-29T04:23:06;102526.38;;;10.29;100.00
71907;BME280;59781;52.090;5.030;2023-05-29T04:25:32;102525.38;;;10.19;100.00
71907;BME280;59781;52.090;5.030;2023-05-29T04:27:58;102526.25;;;10.51;100.00
71907;BME280;59781;52.090;5.030;2023-05-29T04:30:26;102529.47;;;10.24;100.00
71907;BME280;59781;52.090;5.030;2023-05-29T04:32:52;102522.09;;;10.26;100.00
71907;BME280;59781;52.090;5.030;2023-05-29T04:35:19;102529.88;;;10.41;100.00
71907;BME280;59781;52.090;5.030;2023-05-29T04:37:55;102531.69;;;10.40;100.00
71907;BME280;59781;52.090;5.030;2023-05-29T04:40:22;102534.63;;;10.48;100.00
71907;BME280;59781;52.090;5.030;2023-05-29T04:42:49;102540.16;;;10.68;100.00
71907;BME280;59781;52.090;5.030;2023-05-29T04:45:19;102541.66;;;10.60;100.00
71907;BME280;59781;52.090;5.030;2023-05-29T04:47:50;102544.13;;;10.63;100.00
71907;BME280;59781;52.090;5.030;2023-05-29T04:50:17;102537.94;;;10.73;100.00
71907;BME280;59781;52.090;5.030;2023-05-29T04:52:43;102548.03;;;10.59;100.00
71907;BME280;59781;52.090;5.030;2023-05-29T04:55:10;102544.13;;;11.05;100.00
71907;BME280;59781;52.090;5.030;2023-05-29T04:57:37;102538.59;;;11.07;100.00
71907;BME280;59781;52.090;5.030;2023-05-29T05:00:04;102545.81;;;11.06;100.00
71907;BME280;59781;52.090;5.030;2023-05-29T05:02:49;102542.59;;;11.12;100.00
71907;BME280;59781;52.090;5.030;2023-05-29T05:05:14;102543.69;;;11.10;100.00
71907;BME280;59781;52.090;5.030;2023-05-29T05:07:40;102538.13;;;11.23;100.00
71907;BME280;59781;52.090;5.030;2023-05-29T05:10:07;102536.38;;;11.42;100.00
71907;BME280;59781;52.090;5.030;2023-05-29T05:12:33;102545.47;;;11.20;100.00
71907;BME280;59781;52.090;5.030;2023-05-29T05:15:00;102550.66;;;11.33;100.00
71907;BME280;59781;52.090;5.030;2023-05-29T05:17:27;102535.56;;;11.92;100.00
71907;BME280;59781;52.090;5.030;2023-05-29T05:19:53;102533.91;;;12.10;100.00
71907;BME280;59781;52.090;5.030;2023-05-29T05:22:19;102531.06;;;12.21;100.00
71907;BME280;59781;52.090;5.030;2023-05-29T05:24:47;102538.16;;;13.00;100.00
71907;BME280;59781;52.090;5.030;2023-05-29T05:27:13;102535.69;;;13.06;100.00
71907;BME280;59781;52.090;5.030;2023-05-29T05:29:39;102533.75;;;12.99;100.00
71907;BME280;59781;52.090;5.030;2023-05-29T05:32:05;102534.28;;;13.22;100.00
71907;BME280;59781;52.090;5.030;2023-05-29T05:34:33;102536.13;;;13.11;100.00
71907;BME280;59781;52.090;5.030;2023-05-29T05:36:58;102538.31;;;12.88;100.00
71907;BME280;59781;52.090;5.030;2023-05-29T05:39:24;102538.03;;;13.75;100.00
71907;BME280;59781;52.090;5.030;2023-05-29T05:41:51;102547.34;;;14.46;100.00
71907;BME280;59781;52.090;5.030;2023-05-29T05:44:30;102550.00;;;13.45;100.00
71907;BME280;59781;52.090;5.030;2023-05-29T05:47:03;102551.75;;;13.37;100.00
71907;BME280;59781;52.090;5.030;2023-05-29T05:49:30;102556.78;;;13.12;100.00
71907;BME280;59781;52.090;5.030;2023-05-29T05:51:55;102547.81;;;13.86;100.00
71907;BME280;59781;52.090;5.030;2023-05-29T05:54:21;102556.50;;;13.90;100.00
71907;BME280;59781;52.090;5.030;2023-05-29T05:56:48;102550.78;;;13.65;100.00
71907;BME280;59781;52.090;5.030;2023-05-29T05:59:17;102561.91;;;14.17;100.00
71907;BME280;59781;52.090;5.030;2023-05-29T06:01:42;102568.50;;;14.32;100.00
71907;BME280;59781;52.090;5.030;2023-05-29T06:04:08;102566.59;;;14.15;100.00
71907;BME280;59781;52.090;5.030;2023-05-29T06:06:35;102563.47;;;13.92;100.00
71907;BME280;59781;52.090;5.030;2023-05-29T06:09:01;102566.09;;;14.29;100.00
71907;BME280;59781;52.090;5.030;2023-05-29T06:11:28;102562.81;;;13.81;100.00
71907;BME280;59781;52.090;5.030;2023-05-29T06:13:54;102552.50;;;14.57;100.00
71907;BME280;59781;52.090;5.030;2023-05-29T06:16:25;102551.09;;;14.71;100.00
71907;BME280;59781;52.090;5.030;2023-05-29T06:18:52;102557.31;;;15.07;100.00
71907;BME280;59781;52.090;5.030;2023-05-29T06:21:18;102565.38;;;15.16;100.00
71907;BME280;59781;52.090;5.030;2023-05-29T06:23:51;102566.53;;;14.52;100.00
71907;BME280;59781;52.090;5.030;2023-05-29T06:26:17;102552.84;;;14.44;100.00
71907;BME280;59781;52.090;5.030;2023-05-29T06:28:43;102562.09;;;14.51;100.00
71907;BME280;59781;52.090;5.030;2023-05-29T06:31:09;102554.88;;;14.42;100.00
71907;BME280;59781;52.090;5.030;2023-05-29T06:33:35;102551.00;;;14.98;100.00
71907;BME280;59781;52.090;5.030;2023-05-29T06:36:02;102544.56;;;15.25;98.12
71907;BME280;59781;52.090;5.030;2023-05-29T06:38:27;102551.09;;;14.71;100.00
71907;BME280;59781;52.090;5.030;2023-05-29T06:40:53;102548.63;;;15.89;94.65
71907;BME280;59781;52.090;5.030;2023-05-29T06:43:19;102543.84;;;16.50;93.01
71907;BME280;59781;52.090;5.030;2023-05-29T06:45:46;102550.44;;;16.23;89.63
71907;BME280;59781;52.090;5.030;2023-05-29T06:48:12;102551.53;;;16.79;87.23
71907;BME280;59781;52.090;5.030;2023-05-29T06:50:39;102564.50;;;15.68;92.94
71907;BME280;59781;52.090;5.030;2023-05-29T06:53:24;102565.16;;;16.12;92.49
71907;BME280;59781;52.090;5.030;2023-05-29T06:55:53;102566.38;;;16.18;92.34
71907;BME280;59781;52.090;5.030;2023-05-29T06:58:19;102585.84;;;17.29;85.75
71907;BME280;59781;52.090;5.030;2023-05-29T07:00:45;102575.34;;;16.77;86.78
71907;BME280;59781;52.090;5.030;2023-05-29T07:03:34;102561.13;;;16.16;88.54
71907;BME280;59781;52.090;5.030;2023-05-29T07:06:01;102575.59;;;16.41;86.76
71907;BME280;59781;52.090;5.030;2023-05-29T07:08:28;102571.66;;;15.17;94.42
71907;BME280;59781;52.090;5.030;2023-05-29T07:10:54;102565.00;;;15.37;95.53
71907;BME280;59781;52.090;5.030;2023-05-29T07:13:20;102568.00;;;16.53;88.40
71907;BME280;59781;52.090;5.030;2023-05-29T07:15:48;102578.53;;;16.64;88.32
71907;BME280;59781;52.090;5.030;2023-05-29T07:18:15;102565.13;;;16.87;85.32
71907;BME280;59781;52.090;5.030;2023-05-29T07:20:41;102570.69;;;16.37;87.38
71907;BME280;59781;52.090;5.030;2023-05-29T07:23:10;102569.66;;;16.38;86.51
71907;BME280;59781;52.090;5.030;2023-05-29T07:25:35;102571.78;;;16.76;86.94
71907;BME280;59781;52.090;5.030;2023-05-29T07:28:02;102566.84;;;16.80;85.83
71907;BME280;59781;52.090;5.030;2023-05-29T07:30:27;102576.00;;;16.62;85.66
71907;BME280;59781;52.090;5.030;2023-05-29T07:32:53;102583.19;;;16.72;83.12
71907;BME280;59781;52.090;5.030;2023-05-29T07:35:19;102579.78;;;16.03;88.58
71907;BME280;59781;52.090;5.030;2023-05-29T07:37:47;102581.91;;;17.39;84.13
71907;BME280;59781;52.090;5.030;2023-05-29T07:40:15;102574.38;;;17.74;82.16
71907;BME280;59781;52.090;5.030;2023-05-29T07:43:03;102579.53;;;18.31;76.69
71907;BME280;59781;52.090;5.030;2023-05-29T07:45:47;102572.94;;;18.94;76.72
71907;BME280;59781;52.090;5.030;2023-05-29T07:48:13;102585.59;;;18.72;74.20
71907;BME280;59781;52.090;5.030;2023-05-29T07:50:40;102575.03;;;17.60;74.27
71907;BME280;59781;52.090;5.030;2023-05-29T07:53:07;102581.31;;;17.68;75.94
71907;BME280;59781;52.090;5.030;2023-05-29T07:55:35;102584.03;;;17.68;77.41
71907;BME280;59781;52.090;5.030;2023-05-29T07:58:01;102589.50;;;17.68;78.59
71907;BME280;59781;52.090;5.030;2023-05-29T08:00:27;102587.72;;;17.28;77.84
71907;BME280;59781;52.090;5.030;2023-05-29T08:02:54;102576.94;;;18.06;76.28
71907;BME280;59781;52.090;5.030;2023-05-29T08:05:29;102580.78;;;16.77;81.83
71907;BME280;59781;52.090;5.030;2023-05-29T08:07:59;102591.28;;;17.29;77.97
71907;BME280;59781;52.090;5.030;2023-05-29T08:10:25;102584.88;;;17.13;79.29
71907;BME280;59781;52.090;5.030;2023-05-29T08:12:51;102588.84;;;18.14;72.11
71907;BME280;59781;52.090;5.030;2023-05-29T08:15:18;102591.41;;;18.69;70.75
71907;BME280;59781;52.090;5.030;2023-05-29T08:17:44;102592.66;;;18.27;70.62
71907;BME280;59781;52.090;5.030;2023-05-29T08:20:10;102599.16;;;18.26;70.28
71907;BME280;59781;52.090;5.030;2023-05-29T08:22:36;102592.22;;;17.68;71.56
71907;BME280;59781;52.090;5.030;2023-05-29T08:25:02;102603.31;;;18.14;71.88
71907;BME280;59781;52.090;5.030;2023-05-29T08:27:28;102596.38;;;18.88;70.49
71907;BME280;59781;52.090;5.030;2023-05-29T08:29:53;102597.56;;;19.09;67.83
71907;BME280;59781;52.090;5.030;2023-05-29T08:32:20;102594.09;;;17.76;70.49
71907;BME280;59781;52.090;5.030;2023-05-29T08:34:46;102597.28;;;18.81;73.52
71907;BME280;59781;52.090;5.030;2023-05-29T08:37:13;102592.63;;;19.42;66.36
71907;BME280;59781;52.090;5.030;2023-05-29T08:39:39;102584.38;;;18.75;67.88
71907;BME280;59781;52.090;5.030;2023-05-29T08:42:07;102592.88;;;19.17;68.79
71907;BME280;59781;52.090;5.030;2023-05-29T08:44:40;102596.19;;;18.90;66.69
71907;BME280;59781;52.090;5.030;2023-05-29T08:47:07;102593.69;;;19.03;68.54
71907;BME280;59781;52.090;5.030;2023-05-29T08:49:42;102605.13;;;19.22;66.56
71907;BME280;59781;52.090;5.030;2023-05-29T08:52:32;102598.25;;;19.26;67.50
71907;BME280;59781;52.090;5.030;2023-05-29T08:55:03;102598.94;;;19.28;66.29
71907;BME280;59781;52.090;5.030;2023-05-29T08:57:30;102606.16;;;19.58;62.65
71907;BME280;59781;52.090;5.030;2023-05-29T08:59:57;102604.38;;;19.80;63.28
71907;BME280;59781;52.090;5.030;2023-05-29T09:02:23;102602.19;;;19.61;66.42
71907;BME280;59781;52.090;5.030;2023-05-29T09:04:50;102604.84;;;19.69;63.74
71907;BME280;59781;52.090;5.030;2023-05-29T09:07:19;102597.97;;;18.52;64.61
71907;BME280;59781;52.090;5.030;2023-05-29T09:09:46;102597.19;;;18.12;67.04
71907;BME280;59781;52.090;5.030;2023-05-29T09:12:13;102607.88;;;19.36;68.17
71907;BME280;59781;52.090;5.030;2023-05-29T09:14:43;102601.91;;;19.70;65.45
71907;BME280;59781;52.090;5.030;2023-05-29T09:17:12;102600.56;;;20.11;66.13
71907;BME280;59781;52.090;5.030;2023-05-29T09:19:39;102601.94;;;20.21;65.24
71907;BME280;59781;52.090;5.030;2023-05-29T09:22:13;102596.81;;;19.97;68.02
71907;BME280;59781;52.090;5.030;2023-05-29T09:24:46;102597.91;;;20.17;65.54
71907;BME280;59781;52.090;5.030;2023-05-29T09:27:13;102600.44;;;20.55;63.74
71907;BME280;59781;52.090;5.030;2023-05-29T09:29:40;102602.25;;;20.12;63.85
71907;BME280;59781;52.090;5.030;2023-05-29T09:32:12;102605.56;;;20.07;63.76
71907;BME280;59781;52.090;5.030;2023-05-29T09:34:42;102604.59;;;20.15;64.33
71907;BME280;59781;52.090;5.030;2023-05-29T09:37:10;102603.31;;;19.66;63.43
71907;BME280;59781;52.090;5.030;2023-05-29T09:39:47;102592.66;;;20.95;64.13
71907;BME280;59781;52.090;5.030;2023-05-29T09:42:14;102590.31;;;20.34;60.59
71907;BME280;59781;52.090;5.030;2023-05-29T09:44:44;102598.69;;;19.96;64.62
71907;BME280;59781;52.090;5.030;2023-05-29T09:47:18;102601.97;;;20.57;60.75
71907;BME280;59781;52.090;5.030;2023-05-29T09:49:45;102588.50;;;20.41;63.40
71907;BME280;59781;52.090;5.030;2023-05-29T09:52:13;102588.72;;;21.60;62.41
71907;BME280;59781;52.090;5.030;2023-05-29T09:54:44;102588.13;;;21.64;59.32
71907;BME280;59781;52.090;5.030;2023-05-29T09:57:16;102590.81;;;20.80;59.95
71907;BME280;59781;52.090;5.030;2023-05-29T09:59:46;102585.53;;;21.00;61.78
71907;BME280;59781;52.090;5.030;2023-05-29T10:02:17;102587.28;;;21.08;57.89
71907;BME280;59781;52.090;5.030;2023-05-29T10:04:44;102582.78;;;20.36;58.87
71907;BME280;59781;52.090;5.030;2023-05-29T10:07:15;102576.88;;;21.25;62.11
71907;BME280;59781;52.090;5.030;2023-05-29T10:09:54;102576.59;;;21.41;59.59
71907;BME280;59781;52.090;5.030;2023-05-29T10:12:26;102576.38;;;20.14;61.01
71907;BME280;59781;52.090;5.030;2023-05-29T10:14:56;102587.28;;;19.93;60.08
71907;BME280;59781;52.090;5.030;2023-05-29T10:17:26;102581.53;;;20.39;64.55
71907;BME280;59781;52.090;5.030;2023-05-29T10:20:01;102583.34;;;20.46;61.52
71907;BME280;59781;52.090;5.030;2023-05-29T10:22:31;102586.28;;;20.66;60.76
71907;BME280;59781;52.090;5.030;2023-05-29T10:24:59;102582.66;;;21.08;58.66
71907;BME280;59781;52.090;5.030;2023-05-29T10:27:26;102586.72;;;21.75;57.17
71907;BME280;59781;52.090;5.030;2023-05-29T10:30:27;102581.19;;;20.84;56.28
71907;BME280;59781;52.090;5.030;2023-05-29T10:38:47;102581.75;;;20.80;59.54
71907;BME280;59781;52.090;5.030;2023-05-29T10:43:54;102574.69;;;21.41;58.40
71907;BME280;59781;52.090;5.030;2023-05-29T10:46:20;102569.38;;;19.75;60.80
71907;BME280;59781;52.090;5.030;2023-05-29T10:48:49;102575.00;;;21.04;58.74
71907;BME280;59781;52.090;5.030;2023-05-29T10:51:28;102557.59;;;22.22;61.84
71907;BME280;59781;52.090;5.030;2023-05-29T10:53:56;102559.47;;;22.21;57.32
71907;BME280;59781;52.090;5.030;2023-05-29T10:56:24;102559.13;;;21.83;59.34
71907;BME280;59781;52.090;5.030;2023-05-29T10:58:57;102552.25;;;20.75;55.82
71907;BME280;59781;52.090;5.030;2023-05-29T11:01:28;102566.38;;;19.56;58.42
71907;BME280;59781;52.090;5.030;2023-05-29T11:06:43;102564.66;;;19.99;58.47
71907;BME280;59781;52.090;5.030;2023-05-29T11:09:45;102561.34;;;20.61;61.71
71907;BME280;59781;52.090;5.030;2023-05-29T11:12:23;102571.41;;;20.75;60.73
71907;BME280;59781;52.090;5.030;2023-05-29T11:15:09;102564.81;;;20.48;62.89
71907;BME280;59781;52.090;5.030;2023-05-29T11:23:07;102562.00;;;21.34;65.28
71907;BME280;59781;52.090;5.030;2023-05-29T11:25:35;102562.97;;;22.02;61.41
71907;BME280;59781;52.090;5.030;2023-05-29T11:28:05;102570.97;;;21.00;62.36
71907;BME280;59781;52.090;5.030;2023-05-29T11:30:46;102583.00;;;20.56;62.61
71907;BME280;59781;52.090;5.030;2023-05-29T11:33:28;102563.50;;;20.87;62.94
71907;BME280;59781;52.090;5.030;2023-05-29T11:35:58;102571.69;;;21.08;63.15
71907;BME280;59781;52.090;5.030;2023-05-29T11:38:26;102572.44;;;20.74;59.92
71907;BME280;59781;52.090;5.030;2023-05-29T11:40:54;102569.00;;;21.15;64.58
71907;BME280;59781;52.090;5.030;2023-05-29T11:43:21;102561.41;;;21.73;59.66
71907;BME280;59781;52.090;5.030;2023-05-29T11:45:47;102561.56;;;21.65;59.40
71907;BME280;59781;52.090;5.030;2023-05-29T11:48:13;102563.50;;;20.87;60.08
71907;BME280;59781;52.090;5.030;2023-05-29T11:50:39;102569.16;;;21.69;61.18
71907;BME280;59781;52.090;5.030;2023-05-29T11:53:06;102578.16;;;21.01;59.55
71907;BME280;59781;52.090;5.030;2023-05-29T11:55:33;102568.47;;;21.54;59.52
71907;BME280;59781;52.090;5.030;2023-05-29T11:58:02;102568.28;;;21.62;59.97
71907;BME280;59781;52.090;5.030;2023-05-29T12:00:37;102572.13;;;22.09;59.68
71907;BME280;59781;52.090;5.030;2023-05-29T12:03:06;102579.81;;;21.86;60.20
71907;BME280;59781;52.090;5.030;2023-05-29T12:05:48;102567.94;;;22.13;60.35
71907;BME280;59781;52.090;5.030;2023-05-29T12:08:21;102568.44;;;22.56;60.70
71907;BME280;59781;52.090;5.030;2023-05-29T12:10:50;102573.44;;;22.26;58.09
71907;BME280;59781;52.090;5.030;2023-05-29T12:13:19;102563.91;;;22.16;58.86
71907;BME280;59781;52.090;5.030;2023-05-29T12:15:47;102567.25;;;21.70;59.94
71907;BME280;59781;52.090;5.030;2023-05-29T12:18:18;102553.16;;;22.21;61.54
71907;BME280;59781;52.090;5.030;2023-05-29T12:20:44;102560.72;;;22.12;59.91
71907;BME280;59781;52.090;5.030;2023-05-29T12:23:10;102551.28;;;21.73;59.45
71907;BME280;59781;52.090;5.030;2023-05-29T12:25:37;102557.53;;;21.33;59.51
71907;BME280;59781;52.090;5.030;2023-05-29T12:28:04;102556.53;;;21.34;62.04
71907;BME280;59781;52.090;5.030;2023-05-29T12:30:30;102552.91;;;21.33;62.30
71907;BME280;59781;52.090;5.030;2023-05-29T12:33:01;102555.03;;;21.72;62.11
71907;BME280;59781;52.090;5.030;2023-05-29T12:35:29;102552.34;;;21.79;61.35
71907;BME280;59781;52.090;5.030;2023-05-29T12:40:30;102547.66;;;20.82;59.64
71907;BME280;59781;52.090;5.030;2023-05-29T12:43:01;102543.03;;;21.11;63.64
71907;BME280;59781;52.090;5.030;2023-05-29T12:45:30;102548.75;;;20.88;61.08
71907;BME280;59781;52.090;5.030;2023-05-29T12:48:00;102558.28;;;21.20;60.00
71907;BME280;59781;52.090;5.030;2023-05-29T12:50:28;102556.16;;;21.15;64.79
71907;BME280;59781;52.090;5.030;2023-05-29T12:53:04;102555.66;;;21.05;62.32
71907;BME280;59781;52.090;5.030;2023-05-29T12:55:34;102556.91;;;21.31;64.24
71907;BME280;59781;52.090;5.030;2023-05-29T12:58:11;102559.56;;;21.87;60.51
71907;BME280;59781;52.090;5.030;2023-05-29T13:00:39;102565.59;;;21.13;60.12
71907;BME280;59781;52.090;5.030;2023-05-29T13:03:07;102551.75;;;21.49;62.21
71907;BME280;59781;52.090;5.030;2023-05-29T13:05:34;102562.91;;;20.91;62.88
71907;BME280;59781;52.090;5.030;2023-05-29T13:08:01;102553.66;;;20.71;63.11
71907;BME280;59781;52.090;5.030;2023-05-29T13:10:27;102563.88;;;20.84;64.26
71907;BME280;59781;52.090;5.030;2023-05-29T13:12:54;102552.75;;;21.35;61.72
71907;BME280;59781;52.090;5.030;2023-05-29T13:15:22;102568.78;;;21.38;64.59
71907;BME280;59781;52.090;5.030;2023-05-29T13:17:49;102567.06;;;21.09;63.74
71907;BME280;59781;52.090;5.030;2023-05-29T13:20:16;102561.81;;;20.43;62.30